createdAt,value
2018-11-07T00:00:39.772Z,100915.45
2018-11-07T00:03:07.463Z,100906.34
2018-11-07T00:05:35.090Z,100907.21
2018-11-07T00:08:02.868Z,100901.54
2018-11-07T00:10:30.354Z,100904.13
2018-11-07T00:12:57.990Z,100895.40
2018-11-07T00:15:25.671Z,100893.16
2018-11-07T00:17:53.288Z,100883.17
2018-11-07T00:20:20.896Z,100879.66
2018-11-07T00:22:48.656Z,100875.31
2018-11-07T00:25:17.212Z,100880.98
2018-11-07T00:27:44.855Z,100881.42
2018-11-07T00:30:12.576Z,100870.13
2018-11-07T00:32:40.219Z,100865.30
2018-11-07T00:35:09.073Z,100865.30
2018-11-07T00:37:36.761Z,100863.11
2018-11-07T00:40:04.378Z,100861.37
2018-11-07T00:42:31.997Z,100864.84
2018-11-07T00:44:59.648Z,100865.30
2018-11-07T00:47:27.742Z,100857.93
2018-11-07T00:49:55.349Z,100859.65
2018-11-07T00:52:22.916Z,100848.38
2018-11-07T00:54:50.679Z,100848.77
2018-11-07T00:57:18.268Z,100842.23
2018-11-07T00:59:45.910Z,100839.15
2018-11-07T01:02:13.536Z,100833.09
2018-11-07T01:04:41.153Z,100829.19
2018-11-07T01:07:08.720Z,100827.45
2018-11-07T01:09:36.486Z,100825.67
2018-11-07T01:12:04.483Z,100828.29
2018-11-07T01:14:32.039Z,100821.39
2018-11-07T01:16:59.676Z,100823.52
2018-11-07T01:19:27.344Z,100817.44
2018-11-07T01:21:55.049Z,100814.00
2018-11-07T01:24:22.633Z,100807.45
2018-11-07T01:26:50.235Z,100807.86
2018-11-07T01:29:17.909Z,100801.74
2018-11-07T01:31:45.525Z,100800.43
2018-11-07T01:34:13.172Z,100802.70
2018-11-07T01:36:40.873Z,100800.14
2018-11-07T01:39:09.224Z,100803.14
2018-11-07T01:41:36.977Z,100805.67
2018-11-07T01:44:04.609Z,100801.30
2018-11-07T01:46:32.257Z,100800.41
2018-11-07T01:48:59.966Z,100791.70
2018-11-07T01:51:27.586Z,100804.42
2018-11-07T01:53:55.210Z,100801.00
2018-11-07T01:56:22.856Z,100802.76
2018-11-07T01:58:50.485Z,100804.94
2018-11-07T02:01:18.253Z,100801.86
2018-11-07T02:03:45.831Z,100798.39
2018-11-07T02:06:13.430Z,100800.14
2018-11-07T02:08:41.044Z,100796.23
2018-11-07T02:11:08.709Z,100794.92
2018-11-07T02:13:36.392Z,100789.22
2018-11-07T02:16:04.265Z,100785.30
2018-11-07T02:18:31.867Z,100783.14
2018-11-07T02:20:59.480Z,100783.19
2018-11-07T02:23:27.045Z,100776.64
2018-11-07T02:25:54.737Z,100780.20
2018-11-07T02:28:22.391Z,100780.63
2018-11-07T02:30:50.037Z,100785.05
2018-11-07T02:33:17.775Z,100778.50
2018-11-07T02:35:45.473Z,100785.02
2018-11-07T02:38:13.323Z,100787.15
2018-11-07T02:40:40.893Z,100780.69
2018-11-07T02:43:08.526Z,100785.92
2018-11-07T02:45:36.094Z,100778.01
2018-11-07T02:48:03.704Z,100777.16
2018-11-07T02:50:31.341Z,100778.88
2018-11-07T02:52:58.978Z,100767.53
2018-11-07T02:55:26.600Z,100765.44
2018-11-07T02:57:54.183Z,100764.12
2018-11-07T03:00:21.824Z,100759.77
2018-11-07T03:02:49.509Z,100768.55
2018-11-07T03:05:17.215Z,100771.95
2018-11-07T03:07:44.870Z,100778.91
2018-11-07T03:10:12.979Z,100769.31
2018-11-07T03:12:41.068Z,100766.28
2018-11-07T03:15:09.140Z,100778.01
2018-11-07T03:17:36.904Z,100784.17
2018-11-07T03:20:05.545Z,100785.45
2018-11-07T03:22:33.184Z,100785.08
2018-11-07T03:25:00.795Z,100785.92
2018-11-07T03:27:28.544Z,100794.19
2018-11-07T03:29:56.155Z,100795.94
2018-11-07T03:32:23.770Z,100798.14
2018-11-07T03:34:51.368Z,100799.89
2018-11-07T03:37:19.024Z,100795.95
2018-11-07T03:39:46.783Z,100797.71
2018-11-07T03:42:14.369Z,100799.89
2018-11-07T03:44:42.026Z,100799.53
2018-11-07T03:47:09.627Z,100797.00
2018-11-07T03:49:37.320Z,100801.74
2018-11-07T03:52:04.921Z,100804.36
2018-11-07T03:54:32.583Z,100803.45
2018-11-07T03:57:00.291Z,100802.20
2018-11-07T03:59:27.980Z,100807.45
2018-11-07T04:01:55.634Z,100805.72
2018-11-07T04:04:23.237Z,100801.85
2018-11-07T04:06:50.849Z,100809.23
2018-11-07T04:09:18.496Z,100820.13
2018-11-07T04:11:46.160Z,100814.06
2018-11-07T04:14:13.795Z,100811.86
2018-11-07T04:16:41.446Z,100813.63
2018-11-07T04:19:09.481Z,100812.73
2018-11-07T04:21:37.437Z,100807.47
2018-11-07T04:24:05.681Z,100805.72
2018-11-07T04:26:34.500Z,100806.63
2018-11-07T04:29:02.380Z,100804.49
2018-11-07T04:31:30.471Z,100805.31
2018-11-07T04:33:58.148Z,100807.95
2018-11-07T04:36:25.897Z,100800.08
2018-11-07T04:38:54.086Z,100791.30
2018-11-07T04:41:21.659Z,100804.47
2018-11-07T04:43:49.361Z,100803.19
2018-11-07T04:46:17.018Z,100797.05
2018-11-07T04:48:44.713Z,100795.30
2018-11-07T04:51:12.660Z,100804.03
2018-11-07T04:53:40.344Z,100799.30
2018-11-07T04:56:07.932Z,100812.45
2018-11-07T04:58:36.143Z,100808.96
2018-11-07T05:01:04.072Z,100805.44
2018-11-07T05:03:31.647Z,100818.04
2018-11-07T05:05:59.325Z,100819.30
2018-11-07T05:08:26.984Z,100818.40
2018-11-07T05:10:54.678Z,100826.23
2018-11-07T05:13:22.300Z,100822.73
2018-11-07T05:15:49.976Z,100831.98
2018-11-07T05:18:17.864Z,100835.06
2018-11-07T05:20:45.527Z,100836.86
2018-11-07T05:23:13.193Z,100833.75
2018-11-07T05:25:40.832Z,100828.03
2018-11-07T05:28:08.584Z,100827.56
2018-11-07T05:30:36.962Z,100827.95
2018-11-07T05:33:04.625Z,100828.88
2018-11-07T05:35:32.261Z,100830.59
2018-11-07T05:37:59.844Z,100828.44
2018-11-07T05:40:28.862Z,100819.25
2018-11-07T05:42:56.603Z,100816.63
2018-11-07T05:45:24.154Z,100808.75
2018-11-07T05:47:51.753Z,100811.38
2018-11-07T05:50:19.689Z,100812.16
2018-11-07T05:52:47.396Z,100825.28
2018-11-07T05:55:15.050Z,100833.52
2018-11-07T05:57:42.630Z,100834.02
2018-11-07T06:00:11.309Z,100831.88
2018-11-07T06:02:39.473Z,100828.48
2018-11-07T06:05:07.922Z,100828.54
2018-11-07T06:07:36.092Z,100838.13
2018-11-07T06:10:04.746Z,100831.98
2018-11-07T06:12:32.336Z,100835.45
2018-11-07T06:15:00.039Z,100832.39
2018-11-07T06:17:27.704Z,100834.20
2018-11-07T06:19:55.306Z,100830.67
2018-11-07T06:22:22.971Z,100835.50
2018-11-07T06:24:50.695Z,100830.70
2018-11-07T06:27:18.336Z,100836.81
2018-11-07T06:29:45.987Z,100839.86
2018-11-07T06:32:13.677Z,100856.39
2018-11-07T06:34:41.357Z,100863.41
2018-11-07T06:37:08.945Z,100874.28
2018-11-07T06:39:36.576Z,100872.03
2018-11-07T06:42:04.553Z,100867.25
2018-11-07T06:44:32.581Z,100863.81
2018-11-07T06:47:00.229Z,100872.16
2018-11-07T06:49:27.866Z,100871.26
2018-11-07T06:51:55.559Z,100869.56
2018-11-07T06:54:23.164Z,100874.33
2018-11-07T06:56:50.782Z,100876.95
2018-11-07T06:59:18.412Z,100876.86
2018-11-07T07:01:47.131Z,100878.58
2018-11-07T07:04:14.748Z,100887.25
2018-11-07T07:06:42.359Z,100889.46
2018-11-07T07:09:10.324Z,100887.33
2018-11-07T07:11:38.091Z,100897.70
2018-11-07T07:14:05.748Z,100894.23
2018-11-07T07:16:33.363Z,100894.16
2018-11-07T07:19:01.032Z,100891.91
2018-11-07T07:21:28.671Z,100889.28
2018-11-07T07:23:56.389Z,100890.59
2018-11-07T07:26:24.064Z,100895.45
2018-11-07T07:28:51.693Z,100900.23
2018-11-07T07:31:19.344Z,100901.06
2018-11-07T07:33:47.067Z,100900.25
2018-11-07T07:36:14.788Z,100900.30
2018-11-07T07:38:42.460Z,100897.66
2018-11-07T07:41:10.117Z,100894.19
2018-11-07T07:43:37.745Z,100887.20
2018-11-07T07:46:05.456Z,100891.98
2018-11-07T07:48:33.106Z,100894.60
2018-11-07T07:51:00.725Z,100892.42
2018-11-07T07:53:28.391Z,100892.39
2018-11-07T07:55:56.081Z,100892.39
2018-11-07T07:58:24.657Z,100896.33
2018-11-07T08:00:52.322Z,100910.31
2018-11-07T08:03:19.923Z,100911.67
2018-11-07T08:05:47.570Z,100911.70
2018-11-07T08:08:15.223Z,100905.53
2018-11-07T08:10:42.864Z,100905.02
2018-11-07T08:13:10.483Z,100911.19
2018-11-07T08:15:38.107Z,100922.09
2018-11-07T08:18:06.606Z,100921.61
2018-11-07T08:20:34.272Z,100918.58
2018-11-07T08:23:01.869Z,100929.88
2018-11-07T08:25:29.472Z,100945.67
2018-11-07T08:27:57.107Z,100951.32
2018-11-07T08:30:24.755Z,100952.14
2018-11-07T08:32:52.368Z,100955.22
2018-11-07T08:35:19.995Z,100950.39
2018-11-07T08:37:47.827Z,100952.52
2018-11-07T08:40:21.181Z,100950.73
2018-11-07T08:42:48.950Z,100955.92
2018-11-07T08:45:16.576Z,100951.13
2018-11-07T08:47:45.094Z,100954.16
2018-11-07T08:50:14.775Z,100958.91
2018-11-07T08:52:43.283Z,100954.98
2018-11-07T08:55:15.241Z,100947.50
2018-11-07T08:57:42.964Z,100957.55
2018-11-07T09:00:13.444Z,100959.27
2018-11-07T09:02:41.762Z,100950.09
2018-11-07T09:05:10.011Z,100949.67
2018-11-07T09:07:37.651Z,100960.53
2018-11-07T09:10:06.740Z,100951.77
2018-11-07T09:12:34.396Z,100955.25
2018-11-07T09:15:02.035Z,100950.00
2018-11-07T09:17:29.667Z,100953.02
2018-11-07T09:19:57.320Z,100948.18
2018-11-07T09:22:24.943Z,100945.56
2018-11-07T09:24:52.711Z,100943.84
2018-11-07T09:27:20.344Z,100948.59
2018-11-07T09:29:48.202Z,100952.06
2018-11-07T09:32:15.993Z,100949.00
2018-11-07T09:34:43.543Z,100954.70
2018-11-07T09:37:11.185Z,100954.68
2018-11-07T09:39:38.892Z,100958.59
2018-11-07T09:42:06.491Z,100955.50
2018-11-07T09:44:34.135Z,100955.89
2018-11-07T09:47:08.492Z,100954.55
2018-11-07T09:49:36.089Z,100950.64
2018-11-07T09:52:03.888Z,100958.89
2018-11-07T09:54:31.567Z,100956.72
2018-11-07T09:56:59.221Z,100960.59
2018-11-07T09:59:26.916Z,100967.98
2018-11-07T10:01:54.478Z,100972.73
2018-11-07T10:04:22.156Z,100974.44
2018-11-07T10:06:49.801Z,100973.13
2018-11-07T10:09:17.409Z,100970.95
2018-11-07T10:11:45.069Z,100977.92
2018-11-07T10:14:12.701Z,100986.59
2018-11-07T10:16:40.357Z,100980.00
2018-11-07T10:19:07.979Z,100983.00
2018-11-07T10:21:35.587Z,100981.64
2018-11-07T10:24:03.209Z,100979.84
2018-11-07T10:26:30.933Z,100975.86
2018-11-07T10:28:58.689Z,100971.43
2018-11-07T10:31:26.253Z,100967.06
2018-11-07T10:33:53.883Z,100966.13
2018-11-07T10:36:21.503Z,100965.23
2018-11-07T10:38:49.132Z,100967.39
2018-11-07T10:41:16.865Z,100967.30
2018-11-07T10:43:44.624Z,100967.74
2018-11-07T10:46:12.373Z,100974.70
2018-11-07T10:48:40.273Z,100969.81
2018-11-07T10:51:07.936Z,100979.34
2018-11-07T10:53:35.561Z,100973.61
2018-11-07T10:56:03.171Z,100977.05
2018-11-07T10:58:30.825Z,100983.98
2018-11-07T11:01:03.864Z,100982.21
2018-11-07T11:03:31.900Z,100975.63
2018-11-07T11:05:59.936Z,100977.34
2018-11-07T11:08:27.571Z,100981.66
2018-11-07T11:10:55.316Z,100983.47
2018-11-07T11:13:23.247Z,100988.33
2018-11-07T11:15:50.880Z,100990.95
2018-11-07T11:18:18.484Z,100990.05
2018-11-07T11:20:46.168Z,100998.30
2018-11-07T11:23:13.907Z,100998.27
2018-11-07T11:25:41.564Z,100992.13
2018-11-07T11:28:09.342Z,100991.66
2018-11-07T11:30:36.955Z,100997.69
2018-11-07T11:33:04.597Z,100997.66
2018-11-07T11:35:32.338Z,100997.61
2018-11-07T11:38:00.002Z,100996.73
2018-11-07T11:40:27.636Z,100998.45
2018-11-07T11:42:55.354Z,100996.70
2018-11-07T11:45:22.970Z,100995.37
2018-11-07T11:47:50.586Z,100996.20
2018-11-07T11:50:19.493Z,100998.38
2018-11-07T11:52:47.955Z,101001.80
2018-11-07T11:55:15.682Z,100995.66
2018-11-07T11:57:44.324Z,101000.88
2018-11-07T12:00:14.401Z,100992.97
2018-11-07T12:02:42.305Z,100990.29
2018-11-07T12:05:12.295Z,100993.73
2018-11-07T12:07:40.255Z,100986.30
2018-11-07T12:10:14.794Z,100988.39
2018-11-07T12:12:43.128Z,100987.48
2018-11-07T12:15:10.792Z,100986.14
2018-11-07T12:17:38.531Z,100984.80
2018-11-07T12:20:06.438Z,100992.12
2018-11-07T12:22:34.109Z,100983.69
2018-11-07T12:25:01.692Z,100980.93
2018-11-07T12:27:29.272Z,100974.34
2018-11-07T12:29:56.949Z,100979.52
2018-11-07T12:32:24.575Z,100981.18
2018-11-07T12:34:52.227Z,100974.45
2018-11-07T12:37:19.828Z,100979.58
2018-11-07T12:39:47.424Z,100983.02
2018-11-07T12:42:15.065Z,100976.05
2018-11-07T12:44:42.709Z,100986.55
2018-11-07T12:47:10.312Z,100983.02
2018-11-07T12:49:38.017Z,100985.98
2018-11-07T12:52:05.543Z,100983.32
2018-11-07T12:54:33.256Z,100982.78
2018-11-07T12:57:01.038Z,100984.47
2018-11-07T12:59:28.746Z,100985.28
2018-11-07T13:01:56.443Z,100983.39
2018-11-07T13:04:24.381Z,100986.32
2018-11-07T13:06:52.276Z,100976.95
2018-11-07T13:09:19.859Z,100983.86
2018-11-07T13:11:47.559Z,100979.78
2018-11-07T13:14:15.171Z,100980.58
2018-11-07T13:16:42.819Z,100990.55
2018-11-07T13:19:10.472Z,100981.35
2018-11-07T13:21:38.108Z,100984.75
2018-11-07T13:24:05.732Z,100982.42
2018-11-07T13:26:33.353Z,100988.38
2018-11-07T13:29:00.940Z,100984.69
2018-11-07T13:31:28.563Z,100983.73
2018-11-07T13:33:56.192Z,100994.62
2018-11-07T13:36:23.844Z,100994.14
2018-11-07T13:38:51.918Z,100997.66
2018-11-07T13:41:19.145Z,100994.55
2018-11-07T13:43:46.805Z,100987.06
2018-11-07T13:46:14.419Z,100993.85
2018-11-07T13:48:42.049Z,100995.92
2018-11-07T13:51:09.657Z,100993.11
2018-11-07T13:53:37.346Z,100996.87
2018-11-07T13:56:05.324Z,100998.11
2018-11-07T13:58:32.968Z,101004.49
2018-11-07T14:01:00.624Z,101004.02
2018-11-07T14:03:28.329Z,100998.75
2018-11-07T14:05:56.230Z,101000.98
2018-11-07T14:08:23.965Z,101004.02
2018-11-07T14:10:51.717Z,100989.03
2018-11-07T14:13:19.309Z,100997.56
2018-11-07T14:15:46.967Z,101001.39
2018-11-07T14:18:14.618Z,100999.59
2018-11-07T14:20:42.285Z,100992.81
2018-11-07T14:23:09.901Z,100999.71
2018-11-07T14:25:37.520Z,100997.42
2018-11-07T14:28:06.800Z,101001.55
2018-11-07T14:30:34.305Z,101004.90
2018-11-07T14:33:02.105Z,101001.39
2018-11-07T14:35:29.713Z,101008.41
2018-11-07T14:37:57.909Z,101007.97
2018-11-07T14:40:25.583Z,101003.58
2018-11-07T14:42:53.255Z,101014.42
2018-11-07T14:45:20.966Z,101014.39
2018-11-07T14:47:48.633Z,101012.15
2018-11-07T14:50:16.230Z,101019.09
2018-11-07T14:52:44.500Z,101024.41
2018-11-07T14:55:13.067Z,101021.23
2018-11-07T14:57:40.796Z,101024.44
2018-11-07T15:00:10.603Z,101022.05
2018-11-07T15:02:38.822Z,101033.42
2018-11-07T15:05:07.863Z,101022.09
2018-11-07T15:07:35.475Z,101025.23
2018-11-07T15:10:03.372Z,101031.23
2018-11-07T15:12:30.971Z,101036.41
2018-11-07T15:14:58.645Z,101037.69
2018-11-07T15:17:26.343Z,101046.48
2018-11-07T15:19:53.970Z,101051.52
2018-11-07T15:22:21.883Z,101050.86
2018-11-07T15:24:49.616Z,101049.70
2018-11-07T15:27:17.203Z,101050.72
2018-11-07T15:29:44.846Z,101053.02
2018-11-07T15:32:12.528Z,101055.69
2018-11-07T15:34:40.160Z,101059.38
2018-11-07T15:37:08.164Z,101056.86
2018-11-07T15:39:35.776Z,101060.91
2018-11-07T15:42:03.469Z,101065.84
2018-11-07T15:44:31.234Z,101065.55
2018-11-07T15:46:58.895Z,101068.28
2018-11-07T15:49:26.488Z,101065.72
2018-11-07T15:51:55.010Z,101067.14
2018-11-07T15:54:22.672Z,101071.19
2018-11-07T15:56:50.509Z,101072.56
2018-11-07T15:59:18.108Z,101074.86
2018-11-07T16:01:45.789Z,101073.24
2018-11-07T16:04:13.826Z,101066.34
2018-11-07T16:06:41.417Z,101072.06
2018-11-07T16:09:09.667Z,101069.97
2018-11-07T16:11:37.267Z,101077.02
2018-11-07T16:14:05.183Z,101082.84
2018-11-07T16:16:32.832Z,101082.46
2018-11-07T16:19:00.496Z,101086.44
2018-11-07T16:21:28.336Z,101090.00
2018-11-07T16:23:56.054Z,101098.83
2018-11-07T16:26:23.970Z,101100.67
2018-11-07T16:28:51.646Z,101110.40
2018-11-07T16:31:19.308Z,101111.37
2018-11-07T16:33:46.896Z,101112.30
2018-11-07T16:36:14.515Z,101109.30
2018-11-07T16:38:42.310Z,101117.65
2018-11-07T16:41:09.936Z,101119.87
2018-11-07T16:43:37.625Z,101121.23
2018-11-07T16:46:05.277Z,101127.86
2018-11-07T16:48:32.896Z,101129.67
2018-11-07T16:51:00.580Z,101117.92
2018-11-07T16:53:30.993Z,101128.52
2018-11-07T16:55:58.632Z,101125.91
2018-11-07T16:58:26.481Z,101129.41
2018-11-07T17:00:54.065Z,101130.81
2018-11-07T17:03:21.695Z,101132.16
2018-11-07T17:05:49.364Z,101135.25
2018-11-07T17:08:17.013Z,101134.00
2018-11-07T17:10:44.751Z,101140.99
2018-11-07T17:13:12.419Z,101144.52
2018-11-07T17:15:40.039Z,101150.20
2018-11-07T17:18:07.780Z,101147.61
2018-11-07T17:20:35.453Z,101150.73
2018-11-07T17:23:03.061Z,101152.95
2018-11-07T17:25:30.772Z,101150.38
2018-11-07T17:27:58.373Z,101151.72
2018-11-07T17:30:25.980Z,101158.31
2018-11-07T17:32:53.745Z,101155.70
2018-11-07T17:35:21.360Z,101157.52
2018-11-07T17:37:48.952Z,101158.80
2018-11-07T17:40:19.540Z,101159.70
2018-11-07T17:42:47.431Z,101160.17
2018-11-07T17:45:16.681Z,101161.50
2018-11-07T17:47:45.195Z,101162.40
2018-11-07T17:50:14.018Z,101166.75
2018-11-07T17:52:41.676Z,101157.17
2018-11-07T17:55:10.638Z,101169.02
2018-11-07T17:57:38.262Z,101169.07
2018-11-07T18:00:08.240Z,101166.88
2018-11-07T18:02:35.941Z,101159.91
2018-11-07T18:05:03.555Z,101164.31
2018-11-07T18:07:31.219Z,101169.55
2018-11-07T18:09:58.884Z,101162.61
2018-11-07T18:15:00.772Z,101170.45
2018-11-07T18:17:28.583Z,101172.27
2018-11-07T18:19:56.233Z,101174.02
2018-11-07T18:22:23.843Z,101175.34
2018-11-07T18:24:51.477Z,101176.66
2018-11-07T18:27:19.144Z,101177.09
2018-11-07T18:29:46.826Z,101176.66
2018-11-07T18:32:14.441Z,101171.44
2018-11-07T18:34:42.151Z,101178.89
2018-11-07T18:37:09.771Z,101180.64
2018-11-07T18:39:38.002Z,101177.20
2018-11-07T18:42:05.833Z,101182.86
2018-11-07T18:44:33.537Z,101178.95
2018-11-07T18:47:01.154Z,101181.57
2018-11-07T18:49:28.850Z,101183.81
2018-11-07T18:51:56.491Z,101183.83
2018-11-07T18:54:24.126Z,101186.43
2018-11-07T18:56:51.779Z,101182.97
2018-11-07T18:59:19.454Z,101194.30
2018-11-07T19:01:47.084Z,101191.70
2018-11-07T19:04:14.723Z,101195.20
2018-11-07T19:06:42.571Z,101191.77
2018-11-07T19:09:10.323Z,101194.81
2018-11-07T19:11:37.931Z,101200.97
2018-11-07T19:14:05.579Z,101198.73
2018-11-07T19:16:33.350Z,101201.74
2018-11-07T19:19:01.074Z,101206.11
2018-11-07T19:21:28.979Z,101211.84
2018-11-07T19:23:56.744Z,101214.01
2018-11-07T19:26:24.396Z,101214.47
2018-11-07T19:28:52.101Z,101219.72
2018-11-07T19:31:19.719Z,101220.63
2018-11-07T19:33:47.343Z,101223.63
2018-11-07T19:36:14.988Z,101218.77
2018-11-07T19:38:42.715Z,101222.22
2018-11-07T19:41:13.536Z,101225.75
2018-11-07T19:43:45.365Z,101226.64
2018-11-07T19:46:13.095Z,101228.38
2018-11-07T19:48:40.717Z,101234.44
2018-11-07T19:51:08.433Z,101237.45
2018-11-07T19:53:36.125Z,101238.77
2018-11-07T19:56:03.846Z,101244.89
2018-11-07T19:58:31.467Z,101249.31
2018-11-07T20:00:59.105Z,101246.23
2018-11-07T20:03:26.648Z,101248.83
2018-11-07T20:05:54.304Z,101251.86
2018-11-07T20:08:22.072Z,101255.80
2018-11-07T20:10:49.704Z,101255.80
2018-11-07T20:13:17.416Z,101263.28
2018-11-07T20:18:12.049Z,101267.31
2018-11-07T20:20:39.745Z,101269.92
2018-11-07T20:23:07.520Z,101274.27
2018-11-07T20:25:35.173Z,101271.66
2018-11-07T20:28:02.805Z,101273.90
2018-11-07T20:30:30.608Z,101280.05
2018-11-07T20:32:58.403Z,101274.82
2018-11-07T20:35:26.113Z,101277.87
2018-11-07T20:37:53.772Z,101284.91
2018-11-07T20:40:22.370Z,101289.27
2018-11-07T20:42:50.133Z,101288.84
2018-11-07T20:45:18.151Z,101294.89
2018-11-07T20:47:45.961Z,101292.17
2018-11-07T20:50:15.017Z,101293.07
2018-11-07T20:52:43.056Z,101300.94
2018-11-07T20:55:11.634Z,101298.31
2018-11-07T20:57:39.249Z,101301.43
2018-11-07T21:00:16.524Z,101306.60
2018-11-07T21:02:44.857Z,101312.31
2018-11-07T21:05:12.588Z,101312.31
2018-11-07T21:07:40.673Z,101311.48
2018-11-07T21:10:11.695Z,101313.28
2018-11-07T21:12:39.808Z,101312.80
2018-11-07T21:15:08.239Z,101318.90
2018-11-07T21:17:35.914Z,101319.33
2018-11-07T21:20:03.752Z,101325.09
2018-11-07T21:22:31.473Z,101325.52
2018-11-07T21:24:59.141Z,101327.73
2018-11-07T21:27:26.780Z,101327.30
2018-11-07T21:29:54.409Z,101323.80
2018-11-07T21:32:22.093Z,101333.47
2018-11-07T21:34:49.888Z,101336.11
2018-11-07T21:37:17.567Z,101334.31
2018-11-07T21:39:48.812Z,101341.66
2018-11-07T21:42:17.292Z,101339.50
2018-11-07T21:44:45.036Z,101338.62
2018-11-07T21:47:12.713Z,101341.24
2018-11-07T21:49:40.461Z,101350.84
2018-11-07T21:52:08.097Z,101349.09
2018-11-07T21:54:35.812Z,101342.10
2018-11-07T21:57:03.444Z,101352.15
2018-11-07T21:59:31.074Z,101356.95
2018-11-07T22:01:58.793Z,101359.16
2018-11-07T22:04:26.528Z,101354.34
2018-11-07T22:06:54.161Z,101360.91
2018-11-07T22:09:21.764Z,101364.41
2018-11-07T22:11:49.432Z,101356.07
2018-11-07T22:14:17.043Z,101368.36
2018-11-07T22:16:45.037Z,101376.63
2018-11-07T22:19:12.736Z,101378.38
2018-11-07T22:21:40.385Z,101378.84
2018-11-07T22:24:08.259Z,101378.84
2018-11-07T22:26:35.812Z,101379.69
2018-11-07T22:29:03.400Z,101385.83
2018-11-07T22:31:31.093Z,101384.09
2018-11-07T22:33:58.732Z,101379.23
2018-11-07T22:36:26.357Z,101389.31
2018-11-07T22:38:54.014Z,101385.33
2018-11-07T22:41:21.630Z,101385.40
2018-11-07T22:43:49.289Z,101384.94
2018-11-07T22:46:16.916Z,101392.80
2018-11-07T22:48:44.528Z,101395.42
2018-11-07T22:51:12.263Z,101398.03
2018-11-07T22:53:39.947Z,101401.89
2018-11-07T22:56:07.572Z,101401.94
2018-11-07T22:58:35.208Z,101409.83
2018-11-07T23:01:08.413Z,101406.77
2018-11-07T23:03:36.234Z,101415.95
2018-11-07T23:06:03.869Z,101417.27
2018-11-07T23:08:31.517Z,101418.58
2018-11-07T23:10:59.558Z,101422.92
2018-11-07T23:13:27.422Z,101419.02
2018-11-07T23:15:55.042Z,101423.36
2018-11-07T23:18:23.037Z,101425.14
2018-11-07T23:20:50.732Z,101422.53
2018-11-07T23:23:18.658Z,101422.06
2018-11-07T23:25:46.681Z,101425.09
2018-11-07T23:28:14.362Z,101427.28
2018-11-07T23:30:41.983Z,101431.23
2018-11-07T23:33:10.257Z,101432.11
2018-11-07T23:35:37.847Z,101433.42
2018-11-07T23:38:05.577Z,101439.50
2018-11-07T23:40:33.268Z,101437.33
2018-11-07T23:43:01.669Z,101442.98
2018-11-07T23:45:29.358Z,101433.31
2018-11-07T23:47:57.168Z,101436.31
2018-11-07T23:50:24.768Z,101442.84
2018-11-07T23:52:53.609Z,101442.84
2018-11-07T23:55:22.321Z,101437.52
2018-11-07T23:57:50.643Z,101441.84
